createdAt,value
2018-07-06T00:00:50.480Z,6.83
2018-07-06T00:03:45.373Z,6.53
2018-07-06T00:09:23.616Z,6.53
2018-07-06T00:12:15.441Z,8.60
2018-07-06T00:17:51.331Z,7.00
2018-07-06T00:20:33.366Z,6.73
2018-07-06T00:23:21.448Z,6.70
2018-07-06T00:26:08.610Z,8.17
2018-07-06T00:28:54.926Z,7.80
2018-07-06T00:31:38.710Z,7.23
2018-07-06T00:34:31.962Z,6.43
2018-07-06T00:37:13.892Z,6.10
2018-07-06T00:39:55.697Z,6.00
2018-07-06T00:42:36.836Z,6.57
2018-07-06T00:45:25.398Z,7.07
2018-07-06T00:48:11.126Z,5.70
2018-07-06T00:50:53.614Z,6.10
2018-07-06T00:53:36.325Z,6.17
2018-07-06T00:56:17.094Z,6.20
2018-07-06T00:58:57.565Z,6.40
2018-07-06T01:01:48.485Z,6.07
2018-07-06T01:04:29.660Z,6.07
2018-07-06T01:07:10.282Z,6.90
2018-07-06T01:09:56.442Z,7.33
2018-07-06T01:12:42.272Z,6.03
2018-07-06T01:15:31.191Z,6.10
2018-07-06T01:18:20.208Z,6.20
2018-07-06T01:21:02.393Z,7.90
2018-07-06T01:24:05.846Z,6.77
2018-07-06T01:26:46.792Z,7.13
2018-07-06T01:29:29.400Z,8.03
2018-07-06T01:35:02.819Z,7.80
2018-07-06T01:37:45.494Z,8.20
2018-07-06T01:40:28.280Z,8.67
2018-07-06T01:43:12.186Z,9.10
2018-07-06T01:45:53.513Z,8.90
2018-07-06T01:48:45.027Z,10.17
2018-07-06T01:51:26.280Z,10.60
2018-07-06T01:54:09.191Z,9.93
2018-07-06T01:56:51.704Z,9.80
2018-07-06T01:59:36.463Z,9.17
2018-07-06T02:02:22.697Z,12.20
2018-07-06T02:05:07.734Z,9.50
2018-07-06T02:08:02.128Z,9.07
2018-07-06T02:10:58.234Z,9.50
2018-07-06T02:14:40.878Z,7.80
2018-07-06T02:20:35.831Z,5.67
2018-07-06T02:23:22.913Z,5.27
2018-07-06T02:26:22.387Z,6.93
2018-07-06T02:29:02.544Z,6.67
2018-07-06T02:33:26.229Z,5.90
2018-07-06T02:36:06.974Z,3.77
2018-07-06T02:39:04.355Z,5.13
2018-07-06T02:42:02.093Z,3.63
2018-07-06T02:48:15.378Z,5.47
2018-07-06T03:20:11.412Z,2.40
2018-07-06T03:22:53.115Z,2.30
2018-07-06T03:25:40.836Z,2.77
2018-07-06T03:28:33.031Z,3.57
2018-07-06T14:20:22.678Z,7.10
2018-07-06T14:22:52.322Z,6.95
2018-07-06T14:28:17.698Z,6.72
2018-07-06T14:30:47.084Z,6.97
2018-07-06T14:33:22.824Z,6.33
2018-07-06T14:35:56.215Z,6.85
2018-07-06T14:38:27.534Z,6.62
2018-07-06T14:41:02.326Z,6.42
2018-07-06T14:43:33.296Z,5.97
2018-07-06T14:46:03.389Z,6.55
2018-07-06T14:48:32.804Z,6.20
2018-07-06T14:51:02.005Z,6.83
2018-07-06T14:53:31.856Z,6.03
2018-07-06T14:56:00.924Z,5.42
2018-07-06T15:05:18.099Z,7.10
